Time;durP1;ratioP1;P1;durP2;ratioP2;P2;SDS_P1;SDS_P2;PMS_P1;PMS_P2;Temp;Humidity;BMP_temperature;BMP_pressure;BME280_temperature;BME280_humidity;BME280_pressure;Samples;Min_cycle;Max_cycle;Signal;HPM_P1;HPM_P2
2022/11/12 00:00:09;;;;;;;4.80;3.33;;;;;;;12.10;100.00;100803.28;5088808;28;20249;-59
2022/11/12 00:02:37;;;;;;;5.53;3.03;;;;;;;12.14;100.00;100799.75;5088626;28;20714;-56
2022/11/12 00:05:05;;;;;;;3.47;3.17;;;;;;;12.06;100.00;100794.69;5085791;28;20199;-56
2022/11/12 00:07:32;;;;;;;5.57;3.00;;;;;;;12.12;100.00;100793.72;5088939;28;20713;-55
2022/11/12 00:09:59;;;;;;;3.13;2.93;;;;;;;12.07;100.00;100793.81;5088634;28;20562;-55
2022/11/12 00:12:26;;;;;;;3.90;3.50;;;;;;;12.03;100.00;100784.31;5085687;28;20206;-55
2022/11/12 00:14:53;;;;;;;3.20;3.00;;;;;;;11.94;100.00;100789.66;5088120;28;20205;-58
2022/11/12 00:17:19;;;;;;;3.07;2.77;;;;;;;11.95;100.00;100788.78;5087951;28;20231;-58
2022/11/12 00:19:48;;;;;;;3.87;3.57;;;;;;;11.88;100.00;100790.59;5088710;28;20870;-60
2022/11/12 00:22:15;;;;;;;3.17;2.97;;;;;;;11.98;100.00;100791.31;5088530;28;20195;-59
2022/11/12 00:24:42;;;;;;;3.63;3.43;;;;;;;11.91;100.00;100784.47;5088576;28;20194;-61
2022/11/12 00:27:08;;;;;;;4.07;3.77;;;;;;;11.88;100.00;100789.72;5088083;28;20191;-59
2022/11/12 00:29:35;;;;;;;4.10;3.80;;;;;;;11.86;100.00;100789.72;5088765;28;20206;-59
2022/11/12 00:32:03;;;;;;;3.80;3.53;;;;;;;11.86;100.00;100796.69;5088706;28;20273;-60
2022/11/12 00:34:30;;;;;;;3.73;3.43;;;;;;;11.86;100.00;100786.28;5088355;28;20210;-59
2022/11/12 00:36:59;;;;;;;4.83;4.43;;;;;;;11.88;100.00;100782.78;5088256;28;20222;-59
2022/11/12 00:39:26;;;;;;;5.00;4.57;;;;;;;11.97;100.00;100793.06;5085746;28;20198;-59
2022/11/12 00:41:53;;;;;;;4.40;4.07;;;;;;;11.96;100.00;100782.69;5088158;28;20578;-55
2022/11/12 00:44:20;;;;;;;4.57;4.27;;;;;;;11.96;100.00;100783.53;5087823;28;20226;-55
2022/11/12 00:46:47;;;;;;;4.90;4.50;;;;;;;11.97;100.00;100780.03;5088191;28;20214;-56
2022/11/12 00:49:14;;;;;;;4.70;4.30;;;;;;;11.95;100.00;100783.56;5088199;28;20202;-55
2022/11/12 00:51:41;;;;;;;5.10;4.70;;;;;;;11.96;100.00;100777.47;5087815;28;20198;-54
2022/11/12 00:54:10;;;;;;;5.20;4.37;;;;;;;11.93;100.00;100764.50;5087922;28;20195;-56
2022/11/12 00:56:36;;;;;;;5.83;5.33;;;;;;;11.88;100.00;100779.31;5087900;28;20215;-56
2022/11/12 00:59:04;;;;;;;5.20;4.67;;;;;;;11.91;100.00;100782.75;5087715;28;20195;-56
2022/11/12 01:01:31;;;;;;;5.03;4.57;;;;;;;11.89;100.00;100778.44;5088173;28;20548;-56
2022/11/12 01:03:58;;;;;;;4.73;4.33;;;;;;;11.77;100.00;100773.41;5087913;28;20206;-57
2022/11/12 01:06:25;;;;;;;5.33;4.83;;;;;;;11.77;100.00;100765.59;5085972;28;20941;-55
2022/11/12 01:08:52;;;;;;;6.83;4.87;;;;;;;11.73;100.00;100756.09;5091674;28;20202;-55
2022/11/12 01:11:23;;;;;;;5.20;4.70;;;;;;;11.75;100.00;100762.13;5091512;28;20199;-56
2022/11/12 01:13:54;;;;;;;4.87;4.50;;;;;;;11.76;100.00;100769.94;5089308;28;20656;-55
2022/11/12 01:16:24;;;;;;;5.43;5.03;;;;;;;11.76;100.00;100763.88;5091325;28;20200;-55
2022/11/12 01:18:53;;;;;;;5.67;4.53;;;;;;;11.79;100.00;100762.09;5091442;28;20219;-55
2022/11/12 01:21:20;;;;;;;5.10;4.73;;;;;;;11.85;100.00;100750.75;5091431;28;20203;-59
2022/11/12 01:23:47;;;;;;;4.80;4.50;;;;;;;11.87;100.00;100757.63;5089383;28;20585;-59
2022/11/12 01:26:17;;;;;;;5.30;4.80;;;;;;;11.88;100.00;100750.69;5091547;28;20195;-60
2022/11/12 01:28:46;;;;;;;5.57;5.17;;;;;;;11.95;100.00;100749.75;5091645;28;20655;-59
2022/11/12 01:31:15;;;;;;;6.37;5.13;;;;;;;11.96;100.00;100748.88;5091586;28;20187;-59
2022/11/12 01:33:44;;;;;;;5.47;4.97;;;;;;;12.01;100.00;100744.44;5091356;28;20188;-59
2022/11/12 01:36:12;;;;;;;5.50;5.10;;;;;;;11.97;100.00;100742.75;5091190;28;20585;-59
2022/11/12 01:38:41;;;;;;;6.97;5.50;;;;;;;11.90;100.00;100743.72;5090982;28;20744;-59
2022/11/12 01:41:10;;;;;;;7.30;5.60;;;;;;;11.90;100.00;100741.13;5088574;28;20194;-55
2022/11/12 01:43:37;;;;;;;5.63;5.23;;;;;;;11.78;100.00;100734.34;5091250;28;20593;-55
2022/11/12 01:46:17;;;;;;;6.23;5.63;;;;;;;11.84;100.00;100736.88;5091020;28;20684;-55
2022/11/12 01:48:49;;;;;;;5.90;5.40;;;;;;;11.72;100.00;100733.56;5090893;28;20195;-55
2022/11/12 01:51:17;;;;;;;6.07;5.50;;;;;;;11.72;100.00;100736.16;5090884;28;20192;-59
2022/11/12 01:53:51;;;;;;;6.67;5.60;;;;;;;11.70;100.00;100741.38;5090839;28;20203;-60
2022/11/12 01:56:22;;;;;;;6.07;5.63;;;;;;;11.73;100.00;100732.69;5091025;28;20217;-58
2022/11/12 01:58:55;;;;;;;7.37;6.07;;;;;;;11.82;100.00;100738.66;5088754;28;20597;-58
2022/11/12 02:01:24;;;;;;;6.13;5.67;;;;;;;11.73;100.00;100736.16;5090822;28;20331;-58
2022/11/12 02:03:51;;;;;;;6.90;6.30;;;;;;;11.48;100.00;100703.56;5090713;28;20201;-59
2022/11/12 02:06:19;;;;;;;6.90;6.30;;;;;;;11.69;100.00;100739.66;5090805;28;20278;-59
2022/11/12 02:08:48;;;;;;;6.47;5.97;;;;;;;11.79;100.00;100736.09;5088280;28;20704;-56
2022/11/12 02:11:17;;;;;;;6.30;5.70;;;;;;;11.88;100.00;100740.28;5090609;28;20287;-55
2022/11/12 02:13:57;;;;;;;6.27;5.77;;;;;;;11.77;100.00;100734.38;5090554;28;20205;-55
2022/11/12 02:16:28;;;;;;;6.13;5.63;;;;;;;11.69;100.00;100747.47;5090883;28;20615;-59
2022/11/12 02:18:55;;;;;;;6.47;5.87;;;;;;;11.56;100.00;100744.16;5089838;28;20588;-59
2022/11/12 02:21:25;;;;;;;6.87;6.20;;;;;;;11.50;100.00;100744.25;5090422;28;20191;-59
2022/11/12 02:24:03;;;;;;;8.73;6.17;;;;;;;11.49;100.00;100745.13;5090251;28;20660;-59
2022/11/12 02:26:34;;;;;;;7.20;6.50;;;;;;;11.48;100.00;100745.16;5088147;28;20199;-59
2022/11/12 02:29:01;;;;;;;8.97;7.90;;;;;;;11.41;100.00;100740.91;5090365;28;20205;-59
2022/11/12 02:31:28;;;;;;;9.23;7.30;;;;;;;11.43;100.00;100742.59;5090583;28;20683;-59
2022/11/12 02:33:55;;;;;;;8.83;7.87;;;;;;;11.38;100.00;100747.03;5090209;28;20201;-59
2022/11/12 02:36:23;;;;;;;9.10;8.30;;;;;;;11.22;100.00;100724.69;5090086;28;20191;-59
2022/11/12 02:38:50;;;;;;;8.10;7.20;;;;;;;11.35;100.00;100744.44;5089969;28;20763;-58
2022/11/12 02:41:18;;;;;;;8.87;7.97;;;;;;;11.35;100.00;100746.19;5089802;28;20213;-58
2022/11/12 02:43:45;;;;;;;8.33;7.10;;;;;;;11.31;100.00;100739.28;5090006;28;20227;-59
2022/11/12 02:46:12;;;;;;;8.67;7.87;;;;;;;11.29;100.00;100740.16;5089868;28;20285;-58
2022/11/12 02:48:39;;;;;;;7.90;7.13;;;;;;;11.19;100.00;100740.28;5089866;28;20199;-58
2022/11/12 02:51:06;;;;;;;8.17;7.13;;;;;;;11.13;100.00;100741.25;5089832;28;20191;-58
2022/11/12 02:53:35;;;;;;;8.20;7.40;;;;;;;11.12;100.00;100744.72;5089549;28;20615;-57
2022/11/12 02:56:02;;;;;;;8.37;7.50;;;;;;;11.02;100.00;100748.31;5089852;28;20582;-58
2022/11/12 02:58:30;;;;;;;8.03;7.33;;;;;;;10.92;100.00;100741.50;5089495;28;20226;-57
2022/11/12 03:00:58;;;;;;;9.70;7.40;;;;;;;10.87;100.00;100743.25;5089820;28;20197;-58
2022/11/12 03:03:25;;;;;;;9.17;7.63;;;;;;;10.93;100.00;100742.34;5089552;28;20199;-58
2022/11/12 03:05:56;;;;;;;8.40;7.30;;;;;;;10.92;100.00;100751.88;5089825;28;20587;-58
2022/11/12 03:08:24;;;;;;;7.93;7.13;;;;;;;10.88;100.00;100742.38;5089313;28;20195;-58
2022/11/12 03:10:53;;;;;;;10.00;7.57;;;;;;;10.88;100.00;100751.03;5089456;28;20187;-58
2022/11/12 03:13:21;;;;;;;9.60;7.30;;;;;;;10.92;100.00;100746.69;5089413;28;20195;-58
2022/11/12 03:15:48;;;;;;;8.20;7.43;;;;;;;10.91;100.00;100745.81;5087462;28;20660;-58
2022/11/12 03:18:15;;;;;;;7.87;7.17;;;;;;;10.87;100.00;100746.72;5089517;28;20620;-58
2022/11/12 03:20:41;;;;;;;8.40;7.67;;;;;;;10.81;100.00;100746.78;5090330;28;20207;-58
2022/11/12 03:23:11;;;;;;;10.30;8.43;;;;;;;10.77;100.00;100742.50;5090717;28;20195;-59
2022/11/12 03:25:38;;;;;;;10.73;8.10;;;;;;;10.75;100.00;100736.44;5090668;28;20590;-54
2022/11/12 03:28:08;;;;;;;9.20;8.30;;;;;;;10.65;100.00;100737.41;5090440;28;20286;-54
2022/11/12 03:30:36;;;;;;;10.07;8.73;;;;;;;10.67;100.00;100746.06;5089604;28;20231;-54
2022/11/12 03:33:04;;;;;;;10.63;8.33;;;;;;;10.65;100.00;100745.22;5090164;28;20198;-55
2022/11/12 03:35:32;;;;;;;9.63;8.67;;;;;;;10.59;100.00;100734.91;5090311;28;20575;-55
2022/11/12 03:37:59;;;;;;;10.37;9.13;;;;;;;10.60;100.00;100739.22;5089768;28;20227;-56
2022/11/12 03:40:27;;;;;;;11.40;9.60;;;;;;;10.64;100.00;100738.28;5089947;28;20196;-55
2022/11/12 03:42:54;;;;;;;10.07;8.87;;;;;;;10.67;100.00;100743.47;5089192;28;20602;-54
2022/11/12 03:45:24;;;;;;;10.77;8.77;;;;;;;10.71;100.00;100750.34;5087408;28;20728;-54
2022/11/12 03:47:53;;;;;;;11.23;9.23;;;;;;;10.70;100.00;100740.84;5085196;28;20226;-54
2022/11/12 03:50:22;;;;;;;12.10;10.57;;;;;;;10.75;100.00;100749.44;5089850;28;20215;-54
2022/11/12 03:52:51;;;;;;;11.63;10.43;;;;;;;10.75;100.00;100754.63;5089553;28;20230;-55
2022/11/12 03:55:21;;;;;;;18.07;10.60;;;;;;;10.82;100.00;100751.13;5089568;28;20230;-55
2022/11/12 03:57:49;;;;;;;12.73;9.53;;;;;;;10.78;100.00;100741.63;5088543;28;20222;-55
2022/11/12 04:00:16;;;;;;;11.67;9.73;;;;;;;10.72;100.00;100746.84;5072112;28;20206;-55
2022/11/12 04:02:45;;;;;;;12.60;10.40;;;;;;;10.70;100.00;100746.03;5068852;28;20203;-55
2022/11/12 04:10:44;;;;;;;11.77;10.13;;;;;;;10.61;100.00;100745.28;5089726;28;20260;-55
2022/11/12 04:13:29;;;;;;;10.50;9.30;;;;;;;10.63;100.00;100741.75;5089889;28;20229;-58
2022/11/12 04:27:01;;;;;;;12.63;10.53;;;;;;;10.65;100.00;100747.81;5089412;28;20198;-59
2022/11/12 04:32:12;;;;;;;14.50;11.43;;;;;;;10.55;100.00;100752.22;5087921;28;20206;-59
2022/11/12 04:34:40;;;;;;;14.97;11.43;;;;;;;10.56;100.00;100753.09;5088288;28;20707;-59
2022/11/12 04:37:08;;;;;;;16.27;11.87;;;;;;;10.63;100.00;100754.75;5088063;28;20201;-59
2022/11/12 04:39:35;;;;;;;14.00;11.60;;;;;;;10.58;100.00;100755.69;5087506;28;20631;-59
2022/11/12 04:45:02;;;;;;;15.77;11.17;;;;;;;10.64;100.00;100758.19;5091631;28;20201;-59
2022/11/12 04:47:31;;;;;;;13.83;11.43;;;;;;;10.71;100.00;100754.69;5091539;28;20203;-60
2022/11/12 04:50:00;;;;;;;15.30;12.00;;;;;;;10.72;100.00;100757.25;5092515;28;20286;-60
2022/11/12 04:52:28;;;;;;;15.43;12.17;;;;;;;10.80;100.00;100760.66;5091548;28;20196;-56
2022/11/12 04:54:55;;;;;;;18.27;12.80;;;;;;;10.88;100.00;100766.63;5091596;28;20195;-55
2022/11/12 04:57:22;;;;;;;16.27;12.83;;;;;;;10.79;100.00;100751.13;5090982;28;20199;-55
2022/11/12 04:59:49;;;;;;;13.87;10.50;;;;;;;10.91;100.00;100770.94;5094176;28;20201;-54
2022/11/12 05:02:17;;;;;;;12.80;10.30;;;;;;;10.86;100.00;100776.16;5093876;28;20195;-55
2022/11/12 05:04:44;;;;;;;12.27;10.73;;;;;;;10.82;100.00;100771.91;5098986;28;20676;-55
2022/11/12 05:07:13;;;;;;;12.03;10.73;;;;;;;10.85;100.00;100773.56;5093526;28;20206;-55
2022/11/12 05:09:41;;;;;;;13.50;11.17;;;;;;;10.86;100.00;100781.34;5092632;28;20203;-55
2022/11/12 05:12:08;;;;;;;14.30;11.57;;;;;;;10.79;100.00;100774.50;5093050;28;20206;-55
2022/11/12 05:14:35;;;;;;;14.20;11.33;;;;;;;10.77;100.00;100780.59;5092991;28;20561;-59
2022/11/12 05:17:02;;;;;;;15.60;11.37;;;;;;;10.70;100.00;100776.34;5093059;28;20278;-59
2022/11/12 05:19:29;;;;;;;16.50;11.87;;;;;;;10.54;100.00;100775.59;5083283;28;20694;-59
2022/11/12 05:22:08;;;;;;;15.97;11.93;;;;;;;10.41;100.00;100779.16;5072489;28;20196;-58
2022/11/12 05:24:38;;;;;;;18.37;13.30;;;;;;;10.46;100.00;100787.78;5072537;28;20583;-55
2022/11/12 05:27:09;;;;;;;15.40;12.07;;;;;;;10.42;100.00;100786.09;5082282;28;20188;-55
2022/11/12 05:29:36;;;;;;;17.57;11.67;;;;;;;10.27;100.00;100781.03;5091650;28;20217;-59
2022/11/12 05:32:03;;;;;;;13.40;11.40;;;;;;;10.40;100.00;100800.81;5091267;28;20195;-59
2022/11/12 05:34:30;;;;;;;14.77;11.73;;;;;;;10.45;100.00;100802.50;5091832;28;20196;-59
2022/11/12 05:36:57;;;;;;;13.13;11.37;;;;;;;10.33;100.00;100809.53;5091803;28;20200;-59
2022/11/12 05:39:24;;;;;;;15.13;11.70;;;;;;;10.43;100.00;100813.75;5091870;28;20614;-59
2022/11/12 05:41:52;;;;;;;18.13;12.07;;;;;;;10.42;100.00;100814.63;5091565;28;20286;-59
2022/11/12 05:44:19;;;;;;;12.63;10.47;;;;;;;10.39;100.00;100812.91;5091563;28;20205;-59
2022/11/12 05:46:47;;;;;;;13.97;11.53;;;;;;;10.40;100.00;100826.75;5091971;28;20199;-59
2022/11/12 05:49:13;;;;;;;12.90;10.80;;;;;;;10.39;100.00;100830.22;5091901;28;20581;-54
2022/11/12 05:51:40;;;;;;;17.37;11.73;;;;;;;10.42;100.00;100848.38;5091170;28;20210;-54
2022/11/12 05:54:07;;;;;;;14.27;11.13;;;;;;;10.38;100.00;100844.97;5091065;28;20756;-54
2022/11/12 05:56:35;;;;;;;17.30;11.93;;;;;;;10.44;100.00;100838.84;5091203;28;20210;-59
2022/11/12 05:59:05;;;;;;;15.47;11.87;;;;;;;10.44;100.00;100857.03;5091090;28;20222;-60
2022/11/12 06:01:32;;;;;;;17.77;12.53;;;;;;;10.41;100.00;100854.44;5091220;28;20192;-60
2022/11/12 06:03:59;;;;;;;17.13;13.00;;;;;;;10.27;100.00;100856.28;5091376;28;20199;-60
2022/11/12 06:06:26;;;;;;;19.03;12.80;;;;;;;10.29;100.00;100851.91;5091582;28;20679;-60
2022/11/12 06:08:53;;;;;;;17.30;12.90;;;;;;;10.29;100.00;100862.31;5077905;28;20216;-58
2022/11/12 06:11:20;;;;;;;17.83;12.80;;;;;;;10.21;100.00;100870.16;5075475;28;20242;-60
2022/11/12 06:13:47;;;;;;;19.53;13.63;;;;;;;10.23;100.00;100867.53;5089110;28;20198;-60
2022/11/12 06:16:15;;;;;;;20.80;14.87;;;;;;;10.22;100.00;100871.00;5089319;28;20191;-61
2022/11/12 06:18:42;;;;;;;26.27;19.27;;;;;;;10.16;100.00;100871.84;5090631;28;20239;-60
2022/11/12 06:21:21;;;;;;;27.57;18.50;;;;;;;10.11;100.00;100869.31;5090926;28;20205;-60
2022/11/12 06:23:50;;;;;;;37.77;27.53;;;;;;;10.27;100.00;100880.47;5090944;28;20697;-60
2022/11/12 06:26:17;;;;;;;48.60;32.27;;;;;;;10.16;100.00;100883.09;5090675;28;20245;-59
2022/11/12 06:28:44;;;;;;;35.47;25.93;;;;;;;10.20;100.00;100889.19;5089889;28;20669;-58
2022/11/12 06:31:12;;;;;;;33.83;21.27;;;;;;;10.11;100.00;100887.47;5091557;28;20201;-62
2022/11/12 06:33:40;;;;;;;24.50;15.77;;;;;;;10.12;100.00;100896.97;5089930;28;20195;-56
2022/11/12 06:36:08;;;;;;;22.07;15.00;;;;;;;10.06;100.00;100894.38;5090045;28;20245;-56
2022/11/12 06:38:37;;;;;;;22.83;15.60;;;;;;;10.10;100.00;100896.13;5090614;28;20622;-55
2022/11/12 06:41:04;;;;;;;24.30;16.17;;;;;;;10.14;100.00;100889.19;5090954;28;20227;-52
2022/11/12 06:43:33;;;;;;;22.95;17.10;;;;;;;10.00;100.00;100901.34;5090192;28;20862;-54
2022/11/12 06:46:01;;;;;;;22.30;14.77;;;;;;;9.92;100.00;100898.81;5091226;28;20205;-54
2022/11/12 06:48:28;;;;;;;19.23;13.13;;;;;;;9.88;100.00;100906.59;5091074;28;20207;-57
2022/11/12 06:50:57;;;;;;;18.07;11.73;;;;;;;9.79;100.00;100903.16;5091250;28;20196;-57
2022/11/12 06:53:25;;;;;;;17.50;11.70;;;;;;;9.82;100.00;100905.72;5091312;28;20224;-58
2022/11/12 06:55:51;;;;;;;19.60;12.30;;;;;;;9.75;100.00;100903.16;5090401;28;20199;-62
2022/11/12 06:58:19;;;;;;;15.50;11.83;;;;;;;9.78;100.00;100900.56;5090895;28;20218;-56
2022/11/12 07:00:46;;;;;;;18.83;11.77;;;;;;;9.73;100.00;100898.00;5091163;28;20218;-57
2022/11/12 07:03:15;;;;;;;18.60;10.97;;;;;;;9.77;100.00;100901.44;5090670;28;20290;-56
2022/11/12 07:05:42;;;;;;;15.07;9.67;;;;;;;9.79;100.00;100897.13;5090605;28;20202;-56
2022/11/12 07:08:11;;;;;;;13.30;9.67;;;;;;;9.81;100.00;100903.16;5090709;28;20199;-58
2022/11/12 07:10:38;;;;;;;15.57;9.83;;;;;;;9.85;100.00;100902.28;5090315;28;20191;-58
2022/11/12 07:13:05;;;;;;;13.63;9.77;;;;;;;9.88;100.00;100904.84;5090947;28;20191;-56
2022/11/12 07:15:31;;;;;;;11.93;9.10;;;;;;;9.94;100.00;100907.41;5090754;28;20195;-57
2022/11/12 07:17:58;;;;;;;12.40;8.83;;;;;;;10.08;100.00;100912.56;5090512;28;20241;-58
2022/11/12 07:20:25;;;;;;;12.87;8.17;;;;;;;10.00;100.00;100916.91;5090395;28;20225;-54
2022/11/12 07:22:52;;;;;;;12.30;8.23;;;;;;;10.01;100.00;100919.50;5090933;28;20191;-54
2022/11/12 07:25:20;;;;;;;13.50;8.73;;;;;;;10.06;100.00;100920.34;5090559;28;21111;-54
2022/11/12 07:27:48;;;;;;;9.83;7.70;;;;;;;10.22;100.00;100912.53;5090369;28;20195;-53
2022/11/12 07:30:16;;;;;;;11.33;9.17;;;;;;;10.30;100.00;100923.72;5090232;28;20245;-55
2022/11/12 07:32:43;;;;;;;7.10;5.70;;;;;;;10.14;100.00;100916.00;5090365;28;20680;-54
2022/11/12 07:35:10;;;;;;;7.10;6.20;;;;;;;9.98;100.00;100924.69;5090087;28;20223;-54
2022/11/12 07:37:37;;;;;;;9.73;6.07;;;;;;;9.95;100.00;100910.88;5089501;28;20195;-65
2022/11/12 07:40:05;;;;;;;7.23;6.30;;;;;;;10.02;100.00;100926.44;5090360;28;20673;-54
2022/11/12 07:42:35;;;;;;;9.40;5.90;;;;;;;10.01;100.00;100929.03;5090064;28;20286;-55
2022/11/12 07:45:02;;;;;;;9.20;7.20;;;;;;;10.05;100.00;100926.38;5084812;28;20200;-54
2022/11/12 07:47:28;;;;;;;16.33;10.70;;;;;;;10.07;100.00;100929.84;5089725;28;20629;-56
2022/11/12 07:49:55;;;;;;;29.67;23.77;;;;;;;10.05;100.00;100930.72;5089937;28;20198;-54
2022/11/12 07:52:23;;;;;;;12.80;9.20;;;;;;;10.15;100.00;100924.66;5089523;28;20202;-54
2022/11/12 07:54:50;;;;;;;7.30;6.57;;;;;;;10.04;100.00;100922.09;5089938;28;20199;-54
2022/11/12 07:57:17;;;;;;;8.47;7.67;;;;;;;10.13;100.00;100919.47;5089380;28;20195;-53
2022/11/12 07:59:45;;;;;;;6.27;5.50;;;;;;;10.14;100.00;100917.72;5089239;28;21027;-54
2022/11/12 08:02:12;;;;;;;6.47;5.87;;;;;;;10.13;100.00;100922.06;5086857;28;20197;-54
2022/11/12 08:04:39;;;;;;;12.20;10.93;;;;;;;10.13;100.00;100910.81;5089543;28;20238;-54
2022/11/12 08:07:06;;;;;;;11.50;9.30;;;;;;;10.10;100.00;100911.69;5089372;28;20191;-57
2022/11/12 08:09:33;;;;;;;7.60;6.77;;;;;;;10.24;100.00;100916.84;5089384;28;20741;-57
2022/11/12 08:12:00;;;;;;;5.60;5.20;;;;;;;10.32;100.00;100909.88;5089428;28;20202;-57
2022/11/12 08:14:26;;;;;;;6.77;6.17;;;;;;;10.28;100.00;100913.34;5089301;28;20201;-57
2022/11/12 08:16:55;;;;;;;50.33;27.77;;;;;;;10.19;100.00;100918.59;5088820;28;20191;-56
2022/11/12 08:19:22;;;;;;;11.10;8.73;;;;;;;10.16;100.00;100918.56;5089071;28;20623;-57
2022/11/12 08:21:48;;;;;;;9.80;6.60;;;;;;;10.11;100.00;100921.19;5087936;28;20205;-57
2022/11/12 08:24:15;;;;;;;7.33;6.73;;;;;;;10.05;100.00;100913.41;5087774;28;20673;-56
2022/11/12 08:26:42;;;;;;;7.63;7.03;;;;;;;10.05;100.00;100915.16;5087886;28;20199;-57
2022/11/12 08:29:09;;;;;;;8.40;7.60;;;;;;;10.07;100.00;100931.56;5087604;28;20195;-57
2022/11/12 08:31:36;;;;;;;7.27;6.47;;;;;;;10.12;100.00;100932.44;5088173;28;20202;-57
2022/11/12 08:34:11;;;;;;;5.80;5.30;;;;;;;10.15;100.00;100941.06;5088548;28;20661;-58
2022/11/12 08:36:39;;;;;;;8.70;7.83;;;;;;;10.19;100.00;100940.19;5088987;28;20640;-59
2022/11/12 08:39:07;;;;;;;6.40;5.90;;;;;;;10.21;100.00;100947.13;5089225;28;20219;-58
2022/11/12 08:41:34;;;;;;;7.60;6.43;;;;;;;10.25;100.00;100949.72;5089358;28;20281;-58
2022/11/12 08:44:01;;;;;;;7.47;6.57;;;;;;;10.24;100.00;100947.13;5089198;28;20691;-57
2022/11/12 08:46:28;;;;;;;7.30;6.60;;;;;;;10.25;100.00;100960.09;5088714;28;20196;-57
2022/11/12 08:48:55;;;;;;;5.80;5.30;;;;;;;10.32;100.00;100955.72;5089047;28;20195;-57
2022/11/12 08:51:23;;;;;;;7.73;5.93;;;;;;;10.34;100.00;100948.78;5089360;28;20614;-57
2022/11/12 08:53:50;;;;;;;7.97;6.87;;;;;;;10.27;100.00;100931.53;5089474;28;20195;-54
2022/11/12 08:56:17;;;;;;;9.80;8.80;;;;;;;10.39;100.00;100949.63;5087297;28;20206;-54
2022/11/12 08:58:44;;;;;;;10.63;9.63;;;;;;;10.33;100.00;100957.44;5087783;28;20199;-54
2022/11/12 09:01:11;;;;;;;7.50;6.80;;;;;;;10.27;100.00;100947.94;5087696;28;20203;-57
2022/11/12 09:03:38;;;;;;;8.47;7.10;;;;;;;10.24;100.00;100957.50;5088046;28;20206;-54
2022/11/12 09:06:06;;;;;;;6.33;5.73;;;;;;;10.25;100.00;100954.03;5088107;28;20217;-55
2022/11/12 09:08:36;;;;;;;5.73;5.10;;;;;;;10.20;100.00;100951.44;5088167;28;20694;-57
2022/11/12 09:11:03;;;;;;;5.63;5.10;;;;;;;10.16;100.00;100950.56;5088210;28;20657;-57
2022/11/12 09:13:30;;;;;;;6.67;5.97;;;;;;;10.11;100.00;100943.69;5088210;28;20586;-57
2022/11/12 09:16:01;;;;;;;6.73;6.10;;;;;;;10.21;100.00;100940.19;5089033;28;20195;-58
2022/11/12 09:18:28;;;;;;;6.93;6.13;;;;;;;10.27;100.00;100937.56;5088891;28;20230;-58
2022/11/12 09:21:00;;;;;;;6.47;5.87;;;;;;;10.32;100.00;100942.75;5089023;28;20603;-57
2022/11/12 09:23:27;;;;;;;24.63;14.53;;;;;;;10.49;100.00;100944.41;5088934;28;20199;-58
2022/11/12 09:25:57;;;;;;;79.27;33.93;;;;;;;10.66;100.00;100936.50;5088904;28;20206;-58
2022/11/12 09:28:24;;;;;;;16.23;10.80;;;;;;;10.65;100.00;100936.50;5091147;28;20199;-54
2022/11/12 09:30:53;;;;;;;13.33;8.80;;;;;;;10.63;100.00;100936.50;5092709;28;20203;-55
2022/11/12 09:33:22;;;;;;;10.30;8.30;;;;;;;10.65;100.00;100934.75;5092541;28;20199;-58
2022/11/12 09:35:49;;;;;;;7.80;7.00;;;;;;;10.60;100.00;100935.69;5092630;28;20208;-58
2022/11/12 09:38:17;;;;;;;15.67;10.13;;;;;;;10.69;100.00;100936.47;5092361;28;20199;-58
2022/11/12 09:41:13;;;;;;;21.13;12.40;;;;;;;10.73;100.00;100940.75;5092336;28;20703;-55
2022/11/12 09:43:45;;;;;;;21.33;12.53;;;;;;;10.86;100.00;100934.63;5086507;28;20202;-54
2022/11/12 09:46:34;;;;;;;25.27;14.07;;;;;;;10.94;100.00;100934.56;5092301;28;20210;-57
2022/11/12 09:49:07;;;;;;;12.57;8.17;;;;;;;10.90;100.00;100925.06;5092307;28;20194;-57
2022/11/12 09:51:37;;;;;;;8.17;6.77;;;;;;;10.88;100.00;100930.28;5092316;28;20332;-58
2022/11/12 09:54:13;;;;;;;10.70;8.93;;;;;;;10.99;100.00;100926.72;5092614;28;20225;-57
2022/11/12 09:56:42;;;;;;;11.87;9.17;;;;;;;11.02;100.00;100935.38;5091998;28;20195;-56
2022/11/12 09:59:11;;;;;;;20.53;15.73;;;;;;;11.04;100.00;100924.97;5092214;28;20233;-57
2022/11/12 10:01:47;;;;;;;8.93;8.03;;;;;;;11.05;100.00;100931.88;5092265;28;20691;-54
2022/11/12 10:04:40;;;;;;;10.07;7.00;;;;;;;11.05;100.00;100942.28;5091987;28;20195;-55
2022/11/12 10:07:14;;;;;;;9.83;6.87;;;;;;;10.97;100.00;100938.88;5085401;28;20202;-54
2022/11/12 10:09:51;;;;;;;7.30;5.50;;;;;;;10.83;100.00;100932.06;5091823;28;20226;-54
2022/11/12 10:12:33;;;;;;;6.93;5.73;;;;;;;10.81;100.00;100927.75;5091657;28;20195;-54
2022/11/12 10:18:45;;;;;;;7.23;6.53;;;;;;;10.60;100.00;100925.28;5083623;28;20237;-57
2022/11/12 10:21:18;;;;;;;7.23;6.60;;;;;;;10.55;100.00;100923.56;5080767;28;20637;-57
2022/11/12 10:23:46;;;;;;;9.97;8.17;;;;;;;10.65;100.00;100924.38;5070848;28;20307;-54
2022/11/12 10:26:15;;;;;;;7.83;5.53;;;;;;;10.59;100.00;100929.63;5070286;28;20216;-57
2022/11/12 10:28:47;;;;;;;6.43;5.70;;;;;;;10.64;100.00;100934.78;5080816;28;20220;-54
2022/11/12 10:31:17;;;;;;;8.70;7.60;;;;;;;10.72;100.00;100931.25;5091008;28;20215;-54
2022/11/12 10:33:44;;;;;;;15.90;11.90;;;;;;;10.90;100.00;100940.66;5090876;28;20302;-54
2022/11/12 10:36:22;;;;;;;8.20;7.50;;;;;;;11.06;100.00;100939.66;5090768;28;20223;-57
2022/11/12 10:38:52;;;;;;;6.97;6.30;;;;;;;11.06;100.00;100941.41;5089398;28;20503;-56
2022/11/12 10:41:22;;;;;;;10.23;9.23;;;;;;;10.93;100.00;100943.25;5090885;28;20234;-56
2022/11/12 10:43:58;;;;;;;8.33;7.63;;;;;;;10.88;100.00;100945.00;5090888;28;20278;-56
2022/11/12 10:46:28;;;;;;;13.10;9.43;;;;;;;10.94;100.00;100936.31;5089064;28;20195;-57
2022/11/12 10:48:59;;;;;;;15.27;9.63;;;;;;;11.02;100.00;100929.31;5090708;28;20199;-56
2022/11/12 10:51:30;;;;;;;11.80;8.10;;;;;;;11.04;100.00;100928.44;5088998;28;20192;-53
2022/11/12 10:53:59;;;;;;;8.20;7.40;;;;;;;10.98;100.00;100925.88;5091223;28;20223;-56
2022/11/12 10:56:29;;;;;;;8.57;7.63;;;;;;;10.90;100.00;100927.66;5091233;28;20195;-56
2022/11/12 10:59:15;;;;;;;11.20;9.97;;;;;;;11.04;100.00;100924.97;5091196;28;20232;-56
2022/11/12 11:01:42;;;;;;;12.67;9.47;;;;;;;11.10;100.00;100920.56;5091167;28;20199;-56
2022/11/12 11:04:19;;;;;;;10.07;8.57;;;;;;;11.09;100.00;100917.97;5091224;28;20207;-53
2022/11/12 11:06:46;;;;;;;24.73;16.27;;;;;;;11.13;100.00;100927.47;5091126;28;20205;-57
2022/11/12 11:09:19;;;;;;;39.60;26.17;;;;;;;11.08;100.00;100934.44;5090950;28;20202;-55
2022/11/12 11:11:50;;;;;;;15.63;11.10;;;;;;;11.04;100.00;100943.16;5090860;28;20664;-51
2022/11/12 11:14:33;;;;;;;48.47;36.10;;;;;;;11.02;100.00;100934.50;5090992;28;20210;-53
2022/11/12 11:17:07;;;;;;;14.70;11.97;;;;;;;10.90;100.00;100933.72;5090720;28;20648;-52
2022/11/12 11:19:37;;;;;;;11.77;9.47;;;;;;;10.90;100.00;100928.53;5075444;28;20723;-52
2022/11/12 11:22:30;;;;;;;12.43;8.37;;;;;;;10.85;100.00;100932.88;5089971;28;20223;-51
2022/11/12 11:25:12;;;;;;;8.97;6.93;;;;;;;10.80;100.00;100931.22;5088892;28;20253;-52
2022/11/12 11:27:46;;;;;;;12.03;9.70;;;;;;;10.70;100.00;100922.63;5089307;28;20222;-52
2022/11/12 11:30:18;;;;;;;13.10;8.30;;;;;;;10.59;100.00;100921.84;5089261;28;20323;-53
2022/11/12 11:33:03;;;;;;;16.07;12.87;;;;;;;10.54;100.00;100924.44;5080080;28;20220;-53
2022/11/12 11:35:45;;;;;;;72.20;48.57;;;;;;;10.69;100.00;100920.03;5089608;28;20618;-51
2022/11/12 11:38:25;;;;;;;13.43;9.77;;;;;;;10.75;100.00;100920.84;5088944;28;20669;-51
2022/11/12 11:41:01;;;;;;;11.10;9.13;;;;;;;10.72;100.00;100922.63;5073735;28;20234;-51
2022/11/12 11:43:45;;;;;;;11.47;9.50;;;;;;;10.66;100.00;100918.31;5085712;28;20238;-52
2022/11/12 11:46:22;;;;;;;8.27;7.57;;;;;;;10.60;100.00;100925.28;5090147;28;20203;-51